Beech Island, South Carolina
Current Conditions -  °F | °C
As of 6:53 PM on Friday 31 Oct 2014 (Local Time) from KAGS Reporting Station
Overcast Overcast  
Wind Chill: 66°   Ceiling: 8000
Heat Index: 66°   Visibility: 10mi
Dew Point: 42°   Wind: 9mph
Humidity: 42%   Direction: 290°WNW
Pressure: 29.8"   Gusts: NA
Location:  33.43°N, 81.89°W
Report Text: KAGS 312253Z 29008KT 10SM FEW060 OVC080 19/06 A2980 RMK AO2 SLP088 T01890056
Loading
Personal Weather Stations






























Interactive Weather Map
Tropical Storm Tracking
New forecast layout! Learn more

10-Day Weather Forecast

Advertisements
Track Severe Weather on mobile